createdAt,value
2019-03-12T10:15:18.778Z,96518.406
2019-03-12T10:15:26.647Z,96514.945
2019-03-12T10:15:34.539Z,96514.976
2019-03-12T10:15:42.409Z,96518.14
2019-03-12T10:15:50.290Z,96520.804
2019-03-12T10:15:58.197Z,96519.054
2019-03-12T10:16:06.131Z,96517.218
2019-03-12T10:16:14.085Z,96517.859
2019-03-12T10:16:21.965Z,96519.804
2019-03-12T10:16:29.912Z,96516.609
2019-03-12T10:16:37.813Z,96520.132
2019-03-12T10:16:46.696Z,96517.468
2019-03-12T10:16:54.595Z,96517.64
2019-03-12T10:17:02.508Z,96516.14
2019-03-12T10:17:10.394Z,96519.023
2019-03-12T10:17:18.290Z,96517.109
2019-03-12T10:17:26.170Z,96516.187
2019-03-12T10:17:34.033Z,96516.781
2019-03-12T10:17:42.963Z,96515.781
2019-03-12T10:17:50.851Z,96516.281
2019-03-12T10:17:58.834Z,96516.937
2019-03-12T10:18:07.705Z,96519.687
2019-03-12T10:18:15.669Z,96516.109
2019-03-12T10:18:23.585Z,96518.023
2019-03-12T10:18:31.496Z,96516.437
2019-03-12T10:18:39.413Z,96518.187
2019-03-12T10:18:47.873Z,96517.031
2019-03-12T10:18:55.973Z,96517.187
2019-03-12T10:19:05.640Z,96513.281
2019-03-12T10:19:14.249Z,96517.109
2019-03-12T10:19:22.209Z,96511.781
2019-03-12T10:19:30.121Z,96515.781
2019-03-12T10:19:38.096Z,96518.14
2019-03-12T10:19:45.971Z,96515.359
2019-03-12T10:19:53.856Z,96509.953
2019-03-12T10:20:01.750Z,96515.945
2019-03-12T10:20:09.660Z,96510.703
2019-03-12T10:20:17.565Z,96515.195
2019-03-12T10:20:25.424Z,96517.804
2019-03-12T10:20:33.331Z,96516.195
2019-03-12T10:20:41.191Z,96514.609
2019-03-12T10:20:49.136Z,96513.281
2019-03-12T10:20:57.043Z,96512.703
2019-03-12T10:21:04.912Z,96510.656
2019-03-12T10:21:13.783Z,96513.484
2019-03-12T10:21:21.678Z,96516.64
2019-03-12T10:21:29.532Z,96514.031
2019-03-12T10:21:37.555Z,96514.945
2019-03-12T10:21:45.451Z,96513.031
2019-03-12T10:21:53.370Z,96511.812
2019-03-12T10:22:01.251Z,96510.625
2019-03-12T10:22:09.109Z,96510.539
2019-03-12T10:22:16.998Z,96510.203
2019-03-12T10:22:24.886Z,96513.812
2019-03-12T10:22:32.798Z,96514.148
2019-03-12T10:22:40.692Z,96510.07
2019-03-12T10:22:48.573Z,96513.976
2019-03-12T10:22:56.445Z,96515.476
2019-03-12T10:23:04.323Z,96514.812
2019-03-12T10:23:12.203Z,96516.89
2019-03-12T10:23:20.104Z,96518.14
2019-03-12T10:23:28.104Z,96516.312
2019-03-12T10:23:35.990Z,96514.726
2019-03-12T10:23:43.858Z,96518.14
2019-03-12T10:23:51.765Z,96516.14
2019-03-12T10:23:59.629Z,96513.062
2019-03-12T10:24:07.514Z,96513.312
2019-03-12T10:24:15.383Z,96513.062
2019-03-12T10:24:23.295Z,96513.562
2019-03-12T10:24:33.204Z,96512.156
2019-03-12T10:24:41.133Z,96509.32
2019-03-12T10:24:49.054Z,96512.156
2019-03-12T10:24:56.929Z,96515.812
2019-03-12T10:25:04.868Z,96511.656
2019-03-12T10:25:12.805Z,96512.656
2019-03-12T10:25:20.676Z,96518.468
2019-03-12T10:25:28.572Z,96510.906
2019-03-12T10:25:36.445Z,96520.218
2019-03-12T10:25:44.341Z,96511.984
2019-03-12T10:25:52.260Z,96515.476
2019-03-12T10:26:00.157Z,96513.656
2019-03-12T10:26:08.075Z,96516.312
2019-03-12T10:26:15.956Z,96518.968
2019-03-12T10:26:23.812Z,96513.906
2019-03-12T10:26:31.683Z,96512.312
2019-03-12T10:26:39.591Z,96512.156
2019-03-12T10:26:47.485Z,96507.5
2019-03-12T10:26:55.361Z,96509.828
2019-03-12T10:27:03.231Z,96510.656
2019-03-12T10:27:11.118Z,96508
2019-03-12T10:27:19.031Z,96512.984
2019-03-12T10:27:26.900Z,96508.687
2019-03-12T10:27:34.793Z,96513.156
2019-03-12T10:27:42.676Z,96513.515
2019-03-12T10:27:52.547Z,96510.523
2019-03-12T10:28:00.439Z,96507.656
2019-03-12T10:28:08.387Z,96513.484
2019-03-12T10:28:16.270Z,96511.656
2019-03-12T10:28:24.159Z,96511.07
2019-03-12T10:28:32.043Z,96514.343
2019-03-12T10:28:39.963Z,96510.687
2019-03-12T10:28:47.857Z,96511.359
2019-03-12T10:28:55.740Z,96510.328
2019-03-12T10:29:03.681Z,96507.859
2019-03-12T10:29:11.581Z,96505.25
2019-03-12T10:29:19.465Z,96507.609
2019-03-12T10:29:28.339Z,96507.609
2019-03-12T10:29:36.234Z,96507.687
2019-03-12T10:29:44.147Z,96507.25
2019-03-12T10:29:52.061Z,96508.523
2019-03-12T10:29:59.970Z,96505.859
2019-03-12T10:30:07.848Z,96509.187
2019-03-12T10:30:15.829Z,96506.203
2019-03-12T10:30:23.707Z,96509.109
2019-03-12T10:30:31.598Z,96507.609
2019-03-12T10:30:40.460Z,96505.281
2019-03-12T10:30:48.430Z,96505.781
2019-03-12T10:30:56.281Z,96506.703
2019-03-12T10:31:04.172Z,96507.281
2019-03-12T10:31:13.064Z,96506.531
2019-03-12T10:31:20.947Z,96503.375
2019-03-12T10:31:28.926Z,96504.281
2019-03-12T10:31:36.814Z,96504.531
2019-03-12T10:31:44.698Z,96503.375
2019-03-12T10:31:52.583Z,96507.109
2019-03-12T10:32:00.558Z,96507.109
2019-03-12T10:32:08.417Z,96508.531
2019-03-12T10:32:16.297Z,96507.859
2019-03-12T10:32:25.182Z,96509.687
2019-03-12T10:32:33.074Z,96506.117
2019-03-12T10:32:40.966Z,96510.523
2019-03-12T10:32:48.873Z,96507.367
2019-03-12T10:32:56.770Z,96505.031
2019-03-12T10:33:04.652Z,96504.375
2019-03-12T10:33:12.581Z,96505.617
2019-03-12T10:33:20.443Z,96505.031
2019-03-12T10:33:28.352Z,96506.953
2019-03-12T10:33:36.254Z,96504.281
2019-03-12T10:33:44.200Z,96508.195
2019-03-12T10:33:52.138Z,96507.531
2019-03-12T10:34:00.055Z,96503.703
2019-03-12T10:34:07.918Z,96504.281
2019-03-12T10:34:15.827Z,96502.703
2019-03-12T10:34:30.220Z,96505.203
2019-03-12T10:34:37.560Z,96502.781
2019-03-12T10:34:45.473Z,96500.21
2019-03-12T10:34:54.337Z,96499.71
2019-03-12T10:35:02.221Z,96499.96
2019-03-12T10:35:10.168Z,96497.375
2019-03-12T10:35:18.258Z,96500.546
2019-03-12T10:35:26.142Z,96497.875
2019-03-12T10:35:34.727Z,96499.46
2019-03-12T10:35:42.600Z,96499.625
2019-03-12T10:35:50.459Z,96501.296
2019-03-12T10:35:59.353Z,96499.546
2019-03-12T10:36:08.775Z,96501.046
2019-03-12T10:36:16.685Z,96500.796
2019-03-12T10:36:24.533Z,96503.703
2019-03-12T10:36:34.389Z,96499.21
2019-03-12T10:36:42.255Z,96496.875
2019-03-12T10:36:50.134Z,96492.218
2019-03-12T10:37:10.767Z,96495.39
2019-03-12T10:37:16.284Z,96496.296
2019-03-12T10:37:22.790Z,96500.125
2019-03-12T10:37:30.645Z,96500.96
2019-03-12T10:37:38.581Z,96495.14
2019-03-12T10:37:46.447Z,96496.14
2019-03-12T10:37:54.357Z,96499.492
2019-03-12T10:38:02.263Z,96501.71
2019-03-12T10:38:10.136Z,96499.578
2019-03-12T10:38:18.021Z,96499.046
2019-03-12T10:38:25.917Z,96496.75
2019-03-12T10:38:33.814Z,96497.578
2019-03-12T10:38:41.681Z,96497.914
2019-03-12T10:38:49.608Z,96494.585
2019-03-12T10:38:57.495Z,96496.421
2019-03-12T10:39:05.411Z,96496.078
2019-03-12T10:39:13.291Z,96492.718
2019-03-12T10:39:21.151Z,96492.007
2019-03-12T10:39:29.035Z,96492.093
2019-03-12T10:39:36.901Z,96494.585
2019-03-12T10:39:44.764Z,96495.75
2019-03-12T10:39:52.655Z,96493.257
2019-03-12T10:40:00.567Z,96489.593
2019-03-12T10:40:08.475Z,96492.257
2019-03-12T10:40:16.400Z,96489.421
2019-03-12T10:40:24.293Z,96491.843
2019-03-12T10:40:32.174Z,96493.921
2019-03-12T10:40:40.108Z,96491.421
2019-03-12T10:40:48.982Z,96490.234
2019-03-12T10:40:56.833Z,96494.5
2019-03-12T10:41:04.762Z,96492.312
2019-03-12T10:41:12.642Z,96492.718
2019-03-12T10:41:20.515Z,96492.218
2019-03-12T10:41:29.406Z,96487.312
2019-03-12T10:41:38.312Z,96484.078
2019-03-12T10:41:46.311Z,96488.062
2019-03-12T10:41:54.187Z,96488.398
2019-03-12T10:42:02.080Z,96491.468
2019-03-12T10:42:10.007Z,96493.304
2019-03-12T10:42:18.924Z,96490.562
2019-03-12T10:42:26.727Z,96488.812
2019-03-12T10:42:34.642Z,96489.312
2019-03-12T10:42:42.526Z,96490.64
2019-03-12T10:42:50.414Z,96492.312
2019-03-12T10:42:58.319Z,96487.898
2019-03-12T10:43:06.242Z,96487.765
2019-03-12T10:43:16.097Z,96488.515
2019-03-12T10:43:23.973Z,96493.75
2019-03-12T10:43:31.849Z,96488.562
2019-03-12T10:43:39.731Z,96488.843
2019-03-12T10:43:47.609Z,96487.429
2019-03-12T10:43:56.496Z,96483.109
2019-03-12T10:44:04.390Z,96487.015
2019-03-12T10:44:12.245Z,96485.515
2019-03-12T10:44:21.155Z,96489.265
2019-03-12T10:44:29.034Z,96489.515
2019-03-12T10:44:36.923Z,96487.015
2019-03-12T10:44:45.859Z,96486.437
2019-03-12T10:44:53.716Z,96488.093
2019-03-12T10:45:01.602Z,96489.921
2019-03-12T10:45:09.525Z,96486.765
2019-03-12T10:45:17.490Z,96490.015
2019-03-12T10:45:26.357Z,96483.109
2019-03-12T10:45:34.240Z,96485.187
2019-03-12T10:45:42.113Z,96490.593
2019-03-12T10:45:49.999Z,96484.859
2019-03-12T10:45:57.901Z,96485.609
2019-03-12T10:46:05.829Z,96483.437
2019-03-12T10:46:14.680Z,96484.265
2019-03-12T10:46:22.561Z,96483.773
2019-03-12T10:46:31.480Z,96485.609
2019-03-12T10:46:39.347Z,96488.265
2019-03-12T10:46:47.269Z,96486.187
2019-03-12T10:46:55.157Z,96486.968
2019-03-12T10:47:03.048Z,96487.101
2019-03-12T10:47:10.978Z,96479.726
2019-03-12T10:47:18.862Z,96480.476
2019-03-12T10:47:26.746Z,96480.976
2019-03-12T10:47:34.631Z,96480.109
2019-03-12T10:47:42.563Z,96480.726
2019-03-12T10:47:51.463Z,96478.726
2019-03-12T10:48:00.377Z,96480.812
2019-03-12T10:48:08.299Z,96476.781
2019-03-12T10:48:16.205Z,96480.062
2019-03-12T10:48:24.076Z,96478.234
2019-03-12T10:48:31.963Z,96477.734
2019-03-12T10:48:39.850Z,96476.156
2019-03-12T10:48:47.770Z,96478.484
2019-03-12T10:48:55.654Z,96478.812
2019-03-12T10:49:03.558Z,96477.812
2019-03-12T10:49:12.467Z,96476.312
2019-03-12T10:49:20.373Z,96477.406
2019-03-12T10:49:37.144Z,96474.656
2019-03-12T10:49:43.058Z,96478.484
2019-03-12T10:49:50.913Z,96475.562
2019-03-12T10:49:58.798Z,96472.828
2019-03-12T10:50:06.717Z,96469.828
2019-03-12T10:50:14.727Z,96469.828
2019-03-12T10:50:22.617Z,96470.5
2019-03-12T10:50:30.486Z,96471.828
2019-03-12T10:50:39.406Z,96474.156
2019-03-12T10:50:47.307Z,96475.906
2019-03-12T10:50:55.194Z,96473.906
2019-03-12T10:51:03.173Z,96471.828
2019-03-12T10:51:13.126Z,96473.984
2019-03-12T10:51:20.934Z,96471.109
2019-03-12T10:51:28.812Z,96469.25
2019-03-12T10:51:36.724Z,96471.992
2019-03-12T10:51:45.609Z,96470.25
2019-03-12T10:51:53.491Z,96472.601
2019-03-12T10:52:01.412Z,96473.187
2019-03-12T10:52:09.344Z,96472.351
2019-03-12T10:52:17.289Z,96471.523
2019-03-12T10:52:25.209Z,96472.023
2019-03-12T10:52:33.103Z,96466.859
2019-03-12T10:52:40.961Z,96465.695
2019-03-12T10:52:48.995Z,96466.609
2019-03-12T10:52:56.870Z,96467.359
2019-03-12T10:53:04.779Z,96469.781
2019-03-12T10:53:12.640Z,96468.359
2019-03-12T10:53:20.508Z,96467.195
2019-03-12T10:53:29.383Z,96471.523
2019-03-12T10:53:37.302Z,96468.359
2019-03-12T10:53:45.224Z,96466.859
2019-03-12T10:53:53.101Z,96470.523
2019-03-12T10:54:01.034Z,96466.445
2019-03-12T10:54:08.929Z,96470.523
2019-03-12T10:54:17.857Z,96469.187
2019-03-12T10:54:25.731Z,96464.703
2019-03-12T10:54:33.669Z,96470.523
2019-03-12T10:54:42.569Z,96471.773
2019-03-12T10:54:50.503Z,96468.687
2019-03-12T10:55:11.722Z,96470.109
2019-03-12T10:55:14.070Z,96470.031
2019-03-12T10:55:21.247Z,96467.445
2019-03-12T10:55:29.237Z,96468.437
2019-03-12T10:55:37.127Z,96469.687
2019-03-12T10:55:45.051Z,96468.359
2019-03-12T10:55:52.953Z,96467.859
2019-03-12T10:56:00.824Z,96470.773
2019-03-12T10:56:08.739Z,96468.187
2019-03-12T10:56:16.662Z,96470.523
2019-03-12T10:56:24.583Z,96467.195
2019-03-12T10:56:32.481Z,96466.359
2019-03-12T10:56:40.367Z,96465.695
2019-03-12T10:56:48.316Z,96466.359
2019-03-12T10:56:56.210Z,96467.781
2019-03-12T10:57:05.087Z,96467.195
2019-03-12T10:57:12.948Z,96466.195
2019-03-12T10:57:22.845Z,96466.031
2019-03-12T10:57:30.720Z,96469.859
2019-03-12T10:57:39.589Z,96465.695
2019-03-12T10:57:47.514Z,96467.031
2019-03-12T10:57:56.432Z,96465.695
2019-03-12T10:58:04.343Z,96467.859
2019-03-12T10:58:12.212Z,96466.359
2019-03-12T10:58:20.139Z,96465.445
2019-03-12T10:58:28.032Z,96465.734
2019-03-12T10:58:35.977Z,96464.734
2019-03-12T10:58:43.863Z,96467.609
2019-03-12T10:58:51.769Z,96464.312
2019-03-12T10:58:59.644Z,96466.89
2019-03-12T10:59:07.574Z,96461.453
2019-03-12T10:59:15.493Z,96461.07
2019-03-12T10:59:24.507Z,96461.82
2019-03-12T10:59:32.321Z,96460.82
2019-03-12T10:59:40.205Z,96466.976
2019-03-12T10:59:48.108Z,96461.32
2019-03-12T10:59:56.027Z,96464.89
2019-03-12T11:00:04.962Z,96465.89
2019-03-12T11:00:12.849Z,96463.898
2019-03-12T11:00:20.716Z,96466.562
2019-03-12T11:00:28.651Z,96467.312
2019-03-12T11:00:36.544Z,96462.648
2019-03-12T11:00:44.436Z,96463.562
2019-03-12T11:00:52.312Z,96462.32
2019-03-12T11:01:00.189Z,96457.578
2019-03-12T11:01:08.118Z,96459.406
2019-03-12T11:01:16.998Z,96459.484
2019-03-12T11:01:24.859Z,96457.734
2019-03-12T11:01:32.787Z,96457.828
2019-03-12T11:01:40.697Z,96461.398
2019-03-12T11:01:48.666Z,96458.578
2019-03-12T11:01:56.589Z,96460.156
2019-03-12T11:02:04.468Z,96456.578
2019-03-12T11:02:12.337Z,96456.242
2019-03-12T11:02:21.203Z,96457.156
2019-03-12T11:02:29.089Z,96456.906
2019-03-12T11:02:37.052Z,96454.578
2019-03-12T11:02:46.066Z,96454.742
2019-03-12T11:02:54.023Z,96453.75
2019-03-12T11:03:01.937Z,96454.25
2019-03-12T11:03:09.926Z,96457.328
2019-03-12T11:03:18.838Z,96457.078
2019-03-12T11:03:26.769Z,96455.242
2019-03-12T11:03:35.680Z,96453.578
2019-03-12T11:03:43.542Z,96453.664
2019-03-12T11:03:51.407Z,96454.078
2019-03-12T11:03:59.296Z,96452.64
2019-03-12T11:04:07.216Z,96451.75
2019-03-12T11:04:15.071Z,96452.578
2019-03-12T11:04:23.984Z,96447.257
2019-03-12T11:04:31.860Z,96444.484
2019-03-12T11:04:39.855Z,96446.671
2019-03-12T11:04:47.744Z,96446.257
2019-03-12T11:04:55.711Z,96449.312
2019-03-12T11:05:03.590Z,96450.828
2019-03-12T11:05:11.525Z,96451.14
2019-03-12T11:05:19.402Z,96446.757
2019-03-12T11:05:27.308Z,96451.078
2019-03-12T11:05:45.638Z,96452.421
2019-03-12T11:05:50.010Z,96451.921
2019-03-12T11:05:57.883Z,96449.75
2019-03-12T11:06:05.826Z,96449.5
2019-03-12T11:06:13.750Z,96449.75
2019-03-12T11:06:21.705Z,96450.75
2019-03-12T11:06:29.605Z,96452.828
2019-03-12T11:06:37.473Z,96451.75
2019-03-12T11:06:45.376Z,96451.25
2019-03-12T11:06:54.278Z,96448.921
2019-03-12T11:07:15.443Z,96450.25
2019-03-12T11:07:17.131Z,96449.335
2019-03-12T11:07:25.119Z,96450.578
2019-03-12T11:07:33.003Z,96447.757
2019-03-12T11:07:40.883Z,96449.921
2019-03-12T11:07:48.793Z,96450.578
2019-03-12T11:07:56.699Z,96448.171
2019-03-12T11:08:06.903Z,96450
2019-03-12T11:08:14.461Z,96450.921
2019-03-12T11:08:22.361Z,96450.921
2019-03-12T11:08:30.258Z,96450.25
2019-03-12T11:08:39.199Z,96451.578
2019-03-12T11:08:47.077Z,96449.335
2019-03-12T11:08:54.974Z,96455.742
2019-03-12T11:09:02.888Z,96445.421
2019-03-12T11:09:10.793Z,96448.171
2019-03-12T11:09:18.672Z,96444.421
2019-03-12T11:09:26.609Z,96443.765
2019-03-12T11:09:34.533Z,96444.765
2019-03-12T11:09:42.473Z,96448.281
2019-03-12T11:09:50.506Z,96443.765
2019-03-12T11:09:59.350Z,96444.789
2019-03-12T11:10:08.264Z,96444.625
2019-03-12T11:10:16.197Z,96442.296
2019-03-12T11:10:24.028Z,96439.125
2019-03-12T11:10:31.911Z,96437.359
2019-03-12T11:10:39.802Z,96438.632
2019-03-12T11:10:47.680Z,96438.437
2019-03-12T11:10:56.340Z,96440.218
2019-03-12T11:11:05.217Z,96439.968
2019-03-12T11:11:13.113Z,96437.132
2019-03-12T11:11:22.032Z,96438.546
2019-03-12T11:11:29.899Z,96440.46
2019-03-12T11:11:37.884Z,96442.21
2019-03-12T11:11:46.715Z,96440.296
2019-03-12T11:11:54.575Z,96438.796
2019-03-12T11:12:02.449Z,96438.468
2019-03-12T11:12:10.338Z,96439.625
2019-03-12T11:12:18.250Z,96437.468
2019-03-12T11:12:27.156Z,96438.625
2019-03-12T11:12:35.127Z,96439.296
2019-03-12T11:12:42.994Z,96435.132
2019-03-12T11:12:50.857Z,96432.968
2019-03-12T11:12:58.735Z,96439.71
2019-03-12T11:13:06.625Z,96437.875
2019-03-12T11:13:16.472Z,96439.992
2019-03-12T11:13:24.410Z,96437.992
2019-03-12T11:13:32.310Z,96441.156
2019-03-12T11:13:40.201Z,96438.406
2019-03-12T11:13:48.135Z,96438.492
2019-03-12T11:13:56.053Z,96440.734
2019-03-12T11:14:03.934Z,96440.484
2019-03-12T11:14:12.803Z,96437.156
2019-03-12T11:14:20.742Z,96434.25
2019-03-12T11:14:28.672Z,96436.992
2019-03-12T11:14:36.546Z,96436.742
2019-03-12T11:14:44.432Z,96437.656
2019-03-12T11:14:52.376Z,96434.828
2019-03-12T11:15:00.384Z,96434.328
2019-03-12T11:15:08.240Z,96434
2019-03-12T11:15:16.121Z,96439.828
2019-03-12T11:15:24.966Z,96434.75
2019-03-12T11:15:32.855Z,96434.328
2019-03-12T11:15:40.735Z,96432.921
2019-03-12T11:15:48.600Z,96433.078
2019-03-12T11:15:56.475Z,96435.328
2019-03-12T11:16:04.334Z,96436.992
2019-03-12T11:16:12.259Z,96432.828
2019-03-12T11:16:20.109Z,96431.671
2019-03-12T11:16:27.951Z,96431.828
2019-03-12T11:16:35.916Z,96425.257
2019-03-12T11:16:43.832Z,96430.671
2019-03-12T11:16:51.691Z,96431.171
2019-03-12T11:16:59.567Z,96427.757
2019-03-12T11:17:07.470Z,96427.453
2019-03-12T11:17:15.397Z,96429.281
2019-03-12T11:17:23.265Z,96429.828
2019-03-12T11:17:31.224Z,96428.5
2019-03-12T11:17:49.205Z,96430.031
2019-03-12T11:17:53.951Z,96428.281
2019-03-12T11:18:01.926Z,96429.695
2019-03-12T11:18:09.876Z,96425.531
2019-03-12T11:18:17.772Z,96426.453
2019-03-12T11:18:25.679Z,96422.539
2019-03-12T11:18:33.584Z,96424.125
2019-03-12T11:18:41.522Z,96424.781
2019-03-12T11:18:49.469Z,96424.953
2019-03-12T11:18:57.435Z,96424.203
2019-03-12T11:19:05.387Z,96420.71
2019-03-12T11:19:13.370Z,96424.031
2019-03-12T11:19:21.286Z,96422.289
2019-03-12T11:19:29.188Z,96418.875
2019-03-12T11:19:37.077Z,96426.367
2019-03-12T11:19:45.028Z,96422.375
2019-03-12T11:19:52.886Z,96423.281
2019-03-12T11:20:00.818Z,96420.453
2019-03-12T11:20:08.714Z,96420.703
2019-03-12T11:20:17.602Z,96416.375
2019-03-12T11:20:25.508Z,96418.656
2019-03-12T11:20:33.381Z,96416.71
2019-03-12T11:20:41.276Z,96416.484
2019-03-12T11:20:49.142Z,96421.648
2019-03-12T11:20:58.814Z,96420.656
2019-03-12T11:21:07.848Z,96419.906
2019-03-12T11:21:16.746Z,96416.906
2019-03-12T11:21:24.642Z,96415.992
2019-03-12T11:21:32.546Z,96418.906
2019-03-12T11:21:41.468Z,96412.328
2019-03-12T11:21:49.390Z,96410.578
2019-03-12T11:21:57.270Z,96409.664
2019-03-12T11:22:05.139Z,96407.75
2019-03-12T11:22:14.077Z,96407.671
2019-03-12T11:22:22.006Z,96411.242
2019-03-12T11:22:29.873Z,96408
2019-03-12T11:22:37.749Z,96410.078
2019-03-12T11:22:45.611Z,96411.242
2019-03-12T11:22:53.506Z,96407.664
2019-03-12T11:23:01.394Z,96412.578
2019-03-12T11:23:09.295Z,96409.242
2019-03-12T11:23:17.215Z,96410.992
2019-03-12T11:23:26.830Z,96412.734
2019-03-12T11:23:34.779Z,96410.578
2019-03-12T11:23:42.629Z,96407.914
2019-03-12T11:23:50.582Z,96412.906
2019-03-12T11:23:58.480Z,96403.75
2019-03-12T11:24:06.439Z,96403.359
2019-03-12T11:24:15.292Z,96408.687
2019-03-12T11:24:23.220Z,96406.437
2019-03-12T11:24:31.133Z,96405.781
2019-03-12T11:24:39.041Z,96407.523
2019-03-12T11:24:47.041Z,96404.781
2019-03-12T11:24:54.950Z,96404.781
2019-03-12T11:25:02.835Z,96407.023
2019-03-12T11:25:10.723Z,96408.023
2019-03-12T11:25:27.538Z,96399.867
2019-03-12T11:25:33.502Z,96402.109
2019-03-12T11:25:41.545Z,96401.695
2019-03-12T11:25:49.424Z,96402.109
2019-03-12T11:25:57.366Z,96401.609
2019-03-12T11:26:06.271Z,96400.531
2019-03-12T11:26:14.230Z,96403.281
2019-03-12T11:26:22.190Z,96402.945
2019-03-12T11:26:30.093Z,96396.453
2019-03-12T11:26:37.971Z,96401.437
2019-03-12T11:26:45.869Z,96400.531
2019-03-12T11:26:54.741Z,96397.859
2019-03-12T11:27:02.711Z,96400.945
2019-03-12T11:27:10.661Z,96401.531
2019-03-12T11:27:18.556Z,96396.953
2019-03-12T11:27:26.474Z,96399.687
2019-03-12T11:27:34.429Z,96396.281
2019-03-12T11:27:42.312Z,96397.703
2019-03-12T11:27:50.240Z,96399.937
2019-03-12T11:27:58.167Z,96399.281
2019-03-12T11:28:06.071Z,96400.859
2019-03-12T11:28:14.038Z,96400.64
2019-03-12T11:28:21.913Z,96398.804
2019-03-12T11:28:31.760Z,96399.968
2019-03-12T11:28:39.667Z,96398.14
2019-03-12T11:28:47.632Z,96398.304
2019-03-12T11:28:55.509Z,96395.64
2019-03-12T11:29:03.403Z,96395.312
2019-03-12T11:29:11.282Z,96399.468
2019-03-12T11:29:19.196Z,96402.468
2019-03-12T11:29:28.062Z,96400.546
2019-03-12T11:29:35.955Z,96393.734
2019-03-12T11:29:43.811Z,96398.14
2019-03-12T11:29:51.757Z,96395.14
2019-03-12T11:30:00.627Z,96391.148
2019-03-12T11:30:08.500Z,96392.062
2019-03-12T11:30:16.461Z,96391.734
2019-03-12T11:30:24.334Z,96395.39
2019-03-12T11:30:32.334Z,96393.726
2019-03-12T11:30:40.182Z,96394.812
2019-03-12T11:30:48.152Z,96390.898
2019-03-12T11:30:56.126Z,96390.484
2019-03-12T11:31:04.003Z,96390.976
2019-03-12T11:31:11.911Z,96389.648
2019-03-12T11:31:19.774Z,96385.562
2019-03-12T11:31:27.695Z,96391.585
2019-03-12T11:31:35.556Z,96391.976
2019-03-12T11:31:43.471Z,96389.562
2019-03-12T11:31:51.404Z,96387.843
2019-03-12T11:31:59.300Z,96391.171
2019-03-12T11:32:07.176Z,96389.25
2019-03-12T11:32:15.086Z,96390.226
2019-03-12T11:32:23.002Z,96387.843
2019-03-12T11:32:31.075Z,96391.171
2019-03-12T11:32:39.937Z,96391.75
2019-03-12T11:32:47.822Z,96386.171
2019-03-12T11:32:55.705Z,96387.007
2019-03-12T11:33:03.604Z,96387.757
2019-03-12T11:33:11.471Z,96387.171
2019-03-12T11:33:19.359Z,96389.421
2019-03-12T11:33:27.213Z,96387.507
2019-03-12T11:33:35.089Z,96388.421
2019-03-12T11:33:42.998Z,96389.335
2019-03-12T11:33:50.859Z,96386.171
2019-03-12T11:33:58.775Z,96386.835
2019-03-12T11:34:06.671Z,96386.5
2019-03-12T11:34:14.607Z,96385.257
2019-03-12T11:34:22.492Z,96384.5
2019-03-12T11:34:30.360Z,96381.671
2019-03-12T11:34:39.244Z,96378.015
2019-03-12T11:34:47.150Z,96380.171
2019-03-12T11:34:55.095Z,96384.171
2019-03-12T11:35:03.018Z,96387.335
2019-03-12T11:35:10.911Z,96389.328
2019-03-12T11:35:18.812Z,96388.75
2019-03-12T11:35:26.759Z,96386.835
2019-03-12T11:35:40.605Z,96383.75
2019-03-12T11:35:48.596Z,96388.25
2019-03-12T11:35:56.471Z,96386.25
2019-03-12T11:36:04.383Z,96384.695
2019-03-12T11:36:12.285Z,96377.875
2019-03-12T11:36:20.154Z,96381.867
2019-03-12T11:36:28.062Z,96383.117
2019-03-12T11:36:35.925Z,96385.859
2019-03-12T11:36:43.830Z,96381.375
2019-03-12T11:36:51.852Z,96380.531
2019-03-12T11:36:59.861Z,96385.781
2019-03-12T11:37:07.836Z,96382.617
2019-03-12T11:37:16.631Z,96377.031
2019-03-12T11:37:24.543Z,96380.031
2019-03-12T11:37:33.405Z,96376.375
2019-03-12T11:37:41.271Z,96377.203
2019-03-12T11:37:49.304Z,96378.367
2019-03-12T11:37:57.079Z,96378.781
2019-03-12T11:38:05.010Z,96377.531
2019-03-12T11:38:12.855Z,96377.117
2019-03-12T11:38:20.749Z,96379.695
2019-03-12T11:38:28.680Z,96381.226
2019-03-12T11:38:36.555Z,96378.117
2019-03-12T11:38:44.469Z,96379.281
2019-03-12T11:38:52.301Z,96383.031
2019-03-12T11:39:00.224Z,96378.781
2019-03-12T11:39:09.143Z,96377.062
2019-03-12T11:39:17.132Z,96384.328
2019-03-12T11:39:26.856Z,96378.226
2019-03-12T11:39:34.734Z,96376.39
2019-03-12T11:39:42.676Z,96381.164
2019-03-12T11:39:50.814Z,96377.64
2019-03-12T11:39:58.578Z,96379.085
2019-03-12T11:40:07.438Z,96375.671
2019-03-12T11:40:15.341Z,96373.25
2019-03-12T11:40:23.201Z,96373.007
2019-03-12T11:40:35.095Z,96371.921
2019-03-12T11:40:43.188Z,96372.671
2019-03-12T11:40:50.865Z,96372.843
2019-03-12T11:40:58.745Z,96376.585
2019-03-12T11:41:06.677Z,96371.921
2019-03-12T11:41:14.605Z,96376.414
2019-03-12T11:41:22.509Z,96375.164
2019-03-12T11:41:30.341Z,96373.578
2019-03-12T11:41:38.257Z,96371.093
2019-03-12T11:41:46.222Z,96371.671
2019-03-12T11:41:55.164Z,96371.5
2019-03-12T11:42:03.112Z,96372.085
2019-03-12T11:42:11.010Z,96369.421
2019-03-12T11:42:19.159Z,96369.921
2019-03-12T11:42:26.757Z,96371.085
2019-03-12T11:42:34.634Z,96371
2019-03-12T11:42:42.560Z,96368
2019-03-12T11:42:51.601Z,96372.085
2019-03-12T11:43:00.408Z,96369.171
2019-03-12T11:43:08.318Z,96368.359
2019-03-12T11:43:16.175Z,96371.195
2019-03-12T11:43:24.140Z,96367.5
2019-03-12T11:43:32.077Z,96371.109
2019-03-12T11:43:39.959Z,96370.578
2019-03-12T11:43:47.858Z,96369.578
2019-03-12T11:43:55.757Z,96376.851
2019-03-12T11:44:03.654Z,96372.273
2019-03-12T11:44:11.602Z,96374.515
2019-03-12T11:44:19.434Z,96373.773
2019-03-12T11:44:27.316Z,96369.281
2019-03-12T11:44:35.197Z,96371.187
2019-03-12T11:44:43.131Z,96370.031
2019-03-12T11:44:51.011Z,96368.445
2019-03-12T11:44:58.958Z,96370.109
2019-03-12T11:45:14.539Z,96367.687
2019-03-12T11:45:35.211Z,96365.531
2019-03-12T11:45:39.642Z,96369.273
2019-03-12T11:45:47.476Z,96367.531
2019-03-12T11:45:55.391Z,96367.359
2019-03-12T11:46:04.386Z,96366.031
2019-03-12T11:46:12.321Z,96368.781
2019-03-12T11:46:21.195Z,96368.609
2019-03-12T11:46:29.272Z,96367.687
2019-03-12T11:46:45.431Z,96372.101
2019-03-12T11:46:52.938Z,96369.609
2019-03-12T11:47:01.856Z,96373.015
2019-03-12T11:47:10.777Z,96371.015
2019-03-12T11:47:18.648Z,96370.687
2019-03-12T11:47:26.558Z,96370.101
2019-03-12T11:47:34.468Z,96364.609
2019-03-12T11:47:42.398Z,96365.773
2019-03-12T11:47:50.342Z,96365.437
2019-03-12T11:47:58.178Z,96364.718
2019-03-12T11:48:06.074Z,96366.96
2019-03-12T11:48:13.929Z,96371.375
2019-03-12T11:48:22.801Z,96368.625
2019-03-12T11:48:30.689Z,96368.125
2019-03-12T11:48:38.575Z,96368.546
2019-03-12T11:48:46.465Z,96361.64
2019-03-12T11:48:54.357Z,96364.046
2019-03-12T11:49:02.230Z,96362.64